sensor_id;sensor_type;location;lat;lon;timestamp;pressure;altitude;pressure_sealevel;temperature;humidity
74958;BME280;63741;42.624;26.276;2024-03-02T00:01:35;99473.69;;;8.74;100.00
74958;BME280;63741;42.624;26.276;2024-03-02T00:04:04;99466.91;;;8.82;100.00
74958;BME280;63741;42.624;26.276;2024-03-02T00:06:34;99472.81;;;8.86;100.00
74958;BME280;63741;42.624;26.276;2024-03-02T00:09:01;99471.97;;;8.85;100.00
74958;BME280;63741;42.624;26.276;2024-03-02T00:11:28;99469.47;;;8.84;100.00
74958;BME280;63741;42.624;26.276;2024-03-02T00:13:55;99469.91;;;9.02;100.00
74958;BME280;63741;42.624;26.276;2024-03-02T00:16:23;99468.09;;;9.02;100.00
74958;BME280;63741;42.624;26.276;2024-03-02T00:18:51;99456.75;;;9.13;100.00
74958;BME280;63741;42.624;26.276;2024-03-02T00:21:19;99470.78;;;9.14;100.00
74958;BME280;63741;42.624;26.276;2024-03-02T00:23:49;99466.81;;;9.08;100.00
74958;BME280;63741;42.624;26.276;2024-03-02T00:26:19;99454.28;;;8.99;100.00
74958;BME280;63741;42.624;26.276;2024-03-02T00:28:46;99448.81;;;9.02;100.00
74958;BME280;63741;42.624;26.276;2024-03-02T00:31:13;99447.94;;;9.01;100.00
74958;BME280;63741;42.624;26.276;2024-03-02T00:33:46;99450.41;;;8.92;100.00
74958;BME280;63741;42.624;26.276;2024-03-02T00:36:24;99438.06;;;8.92;100.00
74958;BME280;63741;42.624;26.276;2024-03-02T00:38:53;99438.97;;;9.04;100.00
74958;BME280;63741;42.624;26.276;2024-03-02T00:41:29;99437.13;;;8.93;100.00
74958;BME280;63741;42.624;26.276;2024-03-02T00:44:15;99443.59;;;8.89;100.00
74958;BME280;63741;42.624;26.276;2024-03-02T00:46:42;99440.63;;;9.05;100.00
74958;BME280;63741;42.624;26.276;2024-03-02T00:49:23;99441.53;;;8.93;100.00
74958;BME280;63741;42.624;26.276;2024-03-02T00:51:51;99438.06;;;8.92;100.00
74958;BME280;63741;42.624;26.276;2024-03-02T00:54:24;99440.16;;;8.76;100.00
74958;BME280;63741;42.624;26.276;2024-03-02T00:56:53;99425.47;;;8.84;100.00
74958;BME280;63741;42.624;26.276;2024-03-02T00:59:22;99424.16;;;8.90;100.00
74958;BME280;63741;42.624;26.276;2024-03-02T01:01:49;99410.81;;;8.80;100.00
74958;BME280;63741;42.624;26.276;2024-03-02T01:04:17;99412.84;;;8.77;100.00
74958;BME280;63741;42.624;26.276;2024-03-02T01:06:44;99408.00;;;8.71;100.00
74958;BME280;63741;42.624;26.276;2024-03-02T01:09:11;99423.94;;;8.69;100.00
74958;BME280;63741;42.624;26.276;2024-03-02T01:11:39;99420.06;;;8.86;100.00
74958;BME280;63741;42.624;26.276;2024-03-02T01:14:06;99421.78;;;8.74;100.00
74958;BME280;63741;42.624;26.276;2024-03-02T01:16:33;99420.16;;;8.60;100.00
74958;BME280;63741;42.624;26.276;2024-03-02T01:19:00;99415.28;;;8.43;100.00
74958;BME280;63741;42.624;26.276;2024-03-02T01:21:27;99417.78;;;8.57;100.00
74958;BME280;63741;42.624;26.276;2024-03-02T01:23:54;99424.31;;;8.52;100.00
74958;BME280;63741;42.624;26.276;2024-03-02T01:26:21;99419.16;;;8.50;100.00
74958;BME280;63741;42.624;26.276;2024-03-02T01:28:48;99417.91;;;8.43;100.00
74958;BME280;63741;42.624;26.276;2024-03-02T01:31:15;99400.66;;;8.63;100.00
74958;BME280;63741;42.624;26.276;2024-03-02T01:33:42;99408.09;;;8.69;100.00
74958;BME280;63741;42.624;26.276;2024-03-02T01:36:09;99405.88;;;8.76;100.00
74958;BME280;63741;42.624;26.276;2024-03-02T01:38:36;99398.06;;;8.74;100.00
74958;BME280;63741;42.624;26.276;2024-03-02T01:41:03;99391.00;;;8.75;100.00
74958;BME280;63741;42.624;26.276;2024-03-02T01:43:30;99395.34;;;8.76;100.00
74958;BME280;63741;42.624;26.276;2024-03-02T01:45:57;99401.19;;;8.79;100.00
74958;BME280;63741;42.624;26.276;2024-03-02T01:48:24;99396.16;;;8.76;100.00
74958;BME280;63741;42.624;26.276;2024-03-02T01:50:51;99396.66;;;8.81;100.00
74958;BME280;63741;42.624;26.276;2024-03-02T01:53:18;99399.19;;;8.83;100.00
74958;BME280;63741;42.624;26.276;2024-03-02T01:55:45;99396.19;;;8.88;100.00
74958;BME280;63741;42.624;26.276;2024-03-02T01:58:13;99390.66;;;8.79;100.00
74958;BME280;63741;42.624;26.276;2024-03-02T02:00:40;99384.53;;;8.79;100.00
74958;BME280;63741;42.624;26.276;2024-03-02T02:03:07;99384.63;;;8.66;100.00
74958;BME280;63741;42.624;26.276;2024-03-02T02:05:34;99388.81;;;8.69;100.00
74958;BME280;63741;42.624;26.276;2024-03-02T02:08:02;99386.22;;;8.56;100.00
74958;BME280;63741;42.624;26.276;2024-03-02T02:10:29;99381.38;;;8.63;100.00
74958;BME280;63741;42.624;26.276;2024-03-02T02:12:56;99383.03;;;8.64;100.00
74958;BME280;63741;42.624;26.276;2024-03-02T02:15:28;99374.50;;;8.60;100.00
74958;BME280;63741;42.624;26.276;2024-03-02T02:17:56;99386.41;;;8.66;100.00
74958;BME280;63741;42.624;26.276;2024-03-02T02:20:24;99393.13;;;8.70;100.00
74958;BME280;63741;42.624;26.276;2024-03-02T02:23:10;99391.31;;;8.70;100.00
74958;BME280;63741;42.624;26.276;2024-03-02T02:25:37;99379.22;;;8.68;100.00
74958;BME280;63741;42.624;26.276;2024-03-02T02:28:04;99390.28;;;8.73;100.00
74958;BME280;63741;42.624;26.276;2024-03-02T02:30:32;99398.84;;;8.64;100.00
74958;BME280;63741;42.624;26.276;2024-03-02T02:32:59;99406.03;;;8.61;100.00
74958;BME280;63741;42.624;26.276;2024-03-02T02:35:26;99403.38;;;8.61;100.00
74958;BME280;63741;42.624;26.276;2024-03-02T02:37:55;99407.72;;;8.63;100.00
74958;BME280;63741;42.624;26.276;2024-03-02T02:40:23;99405.78;;;8.53;100.00
74958;BME280;63741;42.624;26.276;2024-03-02T02:42:50;99403.72;;;8.57;100.00
74958;BME280;63741;42.624;26.276;2024-03-02T02:45:19;99418.25;;;8.39;100.00
74958;BME280;63741;42.624;26.276;2024-03-02T02:47:46;99420.88;;;8.39;100.00
74958;BME280;63741;42.624;26.276;2024-03-02T02:50:14;99411.75;;;8.55;100.00
74958;BME280;63741;42.624;26.276;2024-03-02T02:52:41;99410.59;;;8.59;100.00
74958;BME280;63741;42.624;26.276;2024-03-02T02:55:10;99409.28;;;8.41;100.00
74958;BME280;63741;42.624;26.276;2024-03-02T02:57:39;99407.91;;;8.35;100.00
74958;BME280;63741;42.624;26.276;2024-03-02T03:00:11;99412.84;;;8.53;100.00
74958;BME280;63741;42.624;26.276;2024-03-02T03:02:46;99417.31;;;8.64;100.00
74958;BME280;63741;42.624;26.276;2024-03-02T03:05:15;99414.19;;;8.58;100.00
74958;BME280;63741;42.624;26.276;2024-03-02T03:07:42;99418.91;;;8.66;100.00
74958;BME280;63741;42.624;26.276;2024-03-02T03:10:11;99414.13;;;8.71;100.00
74958;BME280;63741;42.624;26.276;2024-03-02T03:12:38;99416.34;;;8.65;100.00
74958;BME280;63741;42.624;26.276;2024-03-02T03:15:08;99417.31;;;8.40;100.00
74958;BME280;63741;42.624;26.276;2024-03-02T03:17:35;99420.88;;;8.39;100.00
74958;BME280;63741;42.624;26.276;2024-03-02T03:20:04;99417.56;;;8.48;100.00
74958;BME280;63741;42.624;26.276;2024-03-02T03:22:32;99429.84;;;8.36;100.00
74958;BME280;63741;42.624;26.276;2024-03-02T03:24:59;99438.16;;;8.43;100.00
74958;BME280;63741;42.624;26.276;2024-03-02T03:27:27;99434.75;;;8.53;100.00
74958;BME280;63741;42.624;26.276;2024-03-02T03:29:54;99430.84;;;8.59;100.00
74958;BME280;63741;42.624;26.276;2024-03-02T03:32:21;99428.91;;;8.61;100.00
74958;BME280;63741;42.624;26.276;2024-03-02T03:34:49;99440.72;;;8.68;100.00
74958;BME280;63741;42.624;26.276;2024-03-02T03:37:16;99434.47;;;8.69;100.00
74958;BME280;63741;42.624;26.276;2024-03-02T03:39:43;99434.13;;;8.50;100.00
74958;BME280;63741;42.624;26.276;2024-03-02T03:42:10;99440.59;;;8.46;100.00
74958;BME280;63741;42.624;26.276;2024-03-02T03:44:37;99436.66;;;8.51;100.00
74958;BME280;63741;42.624;26.276;2024-03-02T03:47:04;99437.34;;;8.66;100.00
74958;BME280;63741;42.624;26.276;2024-03-02T03:49:30;99424.06;;;8.68;100.00
74958;BME280;63741;42.624;26.276;2024-03-02T03:51:57;99425.84;;;8.67;100.00
74958;BME280;63741;42.624;26.276;2024-03-02T03:54:24;99411.91;;;8.65;100.00
74958;BME280;63741;42.624;26.276;2024-03-02T03:56:51;99418.50;;;8.59;100.00
74958;BME280;63741;42.624;26.276;2024-03-02T03:59:19;99406.28;;;8.58;100.00
74958;BME280;63741;42.624;26.276;2024-03-02T04:01:46;99401.00;;;8.58;100.00
74958;BME280;63741;42.624;26.276;2024-03-02T04:04:13;99392.25;;;8.58;100.00
74958;BME280;63741;42.624;26.276;2024-03-02T04:06:40;99389.72;;;8.56;100.00
74958;BME280;63741;42.624;26.276;2024-03-02T04:09:07;99382.22;;;8.63;100.00
74958;BME280;63741;42.624;26.276;2024-03-02T04:11:34;99376.81;;;8.65;100.00
74958;BME280;63741;42.624;26.276;2024-03-02T04:14:01;99375.25;;;8.62;100.00
74958;BME280;63741;42.624;26.276;2024-03-02T04:16:28;99384.59;;;8.42;100.00
74958;BME280;63741;42.624;26.276;2024-03-02T04:18:56;99381.25;;;8.40;100.00
74958;BME280;63741;42.624;26.276;2024-03-02T04:21:23;99372.72;;;8.37;100.00
74958;BME280;63741;42.624;26.276;2024-03-02T04:23:50;99374.19;;;8.28;100.00
74958;BME280;63741;42.624;26.276;2024-03-02T04:26:17;99374.31;;;8.26;100.00
74958;BME280;63741;42.624;26.276;2024-03-02T04:28:48;99371.31;;;8.44;100.00
74958;BME280;63741;42.624;26.276;2024-03-02T04:31:15;99375.16;;;8.27;100.00
74958;BME280;63741;42.624;26.276;2024-03-02T04:33:43;99372.41;;;8.28;100.00
74958;BME280;63741;42.624;26.276;2024-03-02T04:36:10;99373.56;;;8.24;100.00
74958;BME280;63741;42.624;26.276;2024-03-02T04:38:38;99371.47;;;8.17;100.00
74958;BME280;63741;42.624;26.276;2024-03-02T04:41:06;99381.31;;;8.15;100.00
74958;BME280;63741;42.624;26.276;2024-03-02T04:43:33;99375.16;;;8.40;100.00
74958;BME280;63741;42.624;26.276;2024-03-02T04:46:01;99368.78;;;8.42;100.00
74958;BME280;63741;42.624;26.276;2024-03-02T04:48:28;99376.38;;;8.47;100.00
74958;BME280;63741;42.624;26.276;2024-03-02T04:50:55;99381.97;;;8.42;100.00
74958;BME280;63741;42.624;26.276;2024-03-02T04:53:22;99385.25;;;8.33;100.00
74958;BME280;63741;42.624;26.276;2024-03-02T04:55:49;99387.16;;;8.31;100.00
74958;BME280;63741;42.624;26.276;2024-03-02T04:58:22;99386.31;;;8.30;100.00
74958;BME280;63741;42.624;26.276;2024-03-02T05:00:49;99393.31;;;8.19;100.00
74958;BME280;63741;42.624;26.276;2024-03-02T05:03:16;99396.25;;;8.27;100.00
74958;BME280;63741;42.624;26.276;2024-03-02T05:05:43;99409.72;;;8.35;100.00
74958;BME280;63741;42.624;26.276;2024-03-02T05:08:11;99414.69;;;8.40;100.00
74958;BME280;63741;42.624;26.276;2024-03-02T05:10:38;99414.00;;;8.49;100.00
74958;BME280;63741;42.624;26.276;2024-03-02T05:13:06;99425.47;;;8.48;100.00
74958;BME280;63741;42.624;26.276;2024-03-02T05:15:33;99421.38;;;8.44;100.00
74958;BME280;63741;42.624;26.276;2024-03-02T05:18:00;99433.31;;;8.49;100.00
74958;BME280;63741;42.624;26.276;2024-03-02T05:20:29;99433.00;;;8.28;100.00
74958;BME280;63741;42.624;26.276;2024-03-02T05:22:57;99441.13;;;8.38;100.00
74958;BME280;63741;42.624;26.276;2024-03-02T05:25:24;99446.06;;;8.43;100.00
74958;BME280;63741;42.624;26.276;2024-03-02T05:27:51;99441.09;;;8.51;100.00
74958;BME280;63741;42.624;26.276;2024-03-02T05:30:18;99454.38;;;8.49;100.00
74958;BME280;63741;42.624;26.276;2024-03-02T05:32:45;99451.16;;;8.20;100.00
74958;BME280;63741;42.624;26.276;2024-03-02T05:35:12;99453.25;;;8.28;100.00
74958;BME280;63741;42.624;26.276;2024-03-02T05:37:39;99451.16;;;8.20;100.00
74958;BME280;63741;42.624;26.276;2024-03-02T05:40:07;99454.53;;;8.22;100.00
74958;BME280;63741;42.624;26.276;2024-03-02T05:42:35;99458.75;;;8.12;100.00
74958;BME280;63741;42.624;26.276;2024-03-02T05:45:02;99455.47;;;8.21;100.00
74958;BME280;63741;42.624;26.276;2024-03-02T05:47:29;99450.31;;;8.20;100.00
74958;BME280;63741;42.624;26.276;2024-03-02T05:49:56;99445.56;;;8.38;100.00
74958;BME280;63741;42.624;26.276;2024-03-02T05:52:22;99449.50;;;8.56;100.00
74958;BME280;63741;42.624;26.276;2024-03-02T05:54:49;99448.13;;;8.63;100.00
74958;BME280;63741;42.624;26.276;2024-03-02T05:57:17;99436.44;;;8.54;100.00
74958;BME280;63741;42.624;26.276;2024-03-02T05:59:50;99439.59;;;8.59;100.00
74958;BME280;63741;42.624;26.276;2024-03-02T06:02:16;99426.94;;;8.52;100.00
74958;BME280;63741;42.624;26.276;2024-03-02T06:04:43;99420.03;;;8.38;100.00
74958;BME280;63741;42.624;26.276;2024-03-02T06:07:10;99416.13;;;8.44;100.00
74958;BME280;63741;42.624;26.276;2024-03-02T06:09:37;99418.25;;;8.26;100.00
74958;BME280;63741;42.624;26.276;2024-03-02T06:12:04;99408.19;;;8.44;100.00
74958;BME280;63741;42.624;26.276;2024-03-02T06:14:31;99406.47;;;8.55;100.00
74958;BME280;63741;42.624;26.276;2024-03-02T06:16:58;99413.25;;;8.47;100.00
74958;BME280;63741;42.624;26.276;2024-03-02T06:19:26;99404.97;;;8.64;100.00
74958;BME280;63741;42.624;26.276;2024-03-02T06:21:54;99407.69;;;8.75;100.00
74958;BME280;63741;42.624;26.276;2024-03-02T06:24:21;99404.78;;;8.78;100.00
74958;BME280;63741;42.624;26.276;2024-03-02T06:26:48;99405.53;;;8.80;100.00
74958;BME280;63741;42.624;26.276;2024-03-02T06:29:15;99407.16;;;8.94;100.00
74958;BME280;63741;42.624;26.276;2024-03-02T06:31:42;99398.19;;;9.66;100.00
74958;BME280;63741;42.624;26.276;2024-03-02T06:34:09;99397.47;;;9.75;100.00
74958;BME280;63741;42.624;26.276;2024-03-02T06:36:36;99402.56;;;9.31;100.00
74958;BME280;63741;42.624;26.276;2024-03-02T06:39:03;99384.84;;;9.33;100.00
74958;BME280;63741;42.624;26.276;2024-03-02T06:41:30;99376.56;;;9.38;100.00
74958;BME280;63741;42.624;26.276;2024-03-02T06:43:57;99379.44;;;9.35;100.00
74958;BME280;63741;42.624;26.276;2024-03-02T06:46:27;99373.91;;;9.27;100.00
74958;BME280;63741;42.624;26.276;2024-03-02T06:48:53;99395.97;;;9.26;100.00
74958;BME280;63741;42.624;26.276;2024-03-02T06:51:21;99391.56;;;9.49;100.00
74958;BME280;63741;42.624;26.276;2024-03-02T06:53:47;99380.78;;;9.52;100.00
74958;BME280;63741;42.624;26.276;2024-03-02T06:56:14;99397.66;;;9.27;100.00
74958;BME280;63741;42.624;26.276;2024-03-02T06:58:41;99385.63;;;9.11;100.00
74958;BME280;63741;42.624;26.276;2024-03-02T07:01:09;99372.22;;;9.37;100.00
74958;BME280;63741;42.624;26.276;2024-03-02T07:03:36;99374.84;;;9.26;100.00
74958;BME280;63741;42.624;26.276;2024-03-02T07:06:06;99381.81;;;9.16;100.00
74958;BME280;63741;42.624;26.276;2024-03-02T07:08:33;99398.56;;;9.15;100.00
74958;BME280;63741;42.624;26.276;2024-03-02T07:11:00;99382.91;;;9.24;100.00
74958;BME280;63741;42.624;26.276;2024-03-02T07:13:27;99374.50;;;9.42;100.00
74958;BME280;63741;42.624;26.276;2024-03-02T07:15:54;99394.56;;;9.44;100.00
74958;BME280;63741;42.624;26.276;2024-03-02T07:18:41;99398.28;;;9.42;100.00
74958;BME280;63741;42.624;26.276;2024-03-02T07:21:09;99385.81;;;9.44;100.00
74958;BME280;63741;42.624;26.276;2024-03-02T07:23:36;99395.53;;;9.54;100.00
74958;BME280;63741;42.624;26.276;2024-03-02T07:26:03;99403.47;;;9.66;100.00
74958;BME280;63741;42.624;26.276;2024-03-02T07:28:33;99404.06;;;9.58;100.00
74958;BME280;63741;42.624;26.276;2024-03-02T07:31:04;99397.47;;;9.52;100.00
74958;BME280;63741;42.624;26.276;2024-03-02T07:33:31;99390.03;;;9.57;100.00
74958;BME280;63741;42.624;26.276;2024-03-02T07:35:59;99393.66;;;9.79;100.00
74958;BME280;63741;42.624;26.276;2024-03-02T07:38:31;99389.81;;;9.83;100.00
74958;BME280;63741;42.624;26.276;2024-03-02T07:41:00;99392.09;;;9.65;100.00
74958;BME280;63741;42.624;26.276;2024-03-02T07:43:27;99394.47;;;9.57;100.00
74958;BME280;63741;42.624;26.276;2024-03-02T07:45:54;99384.50;;;9.49;100.00
74958;BME280;63741;42.624;26.276;2024-03-02T07:48:21;99398.66;;;9.59;100.00
74958;BME280;63741;42.624;26.276;2024-03-02T07:50:48;99407.06;;;9.53;100.00
74958;BME280;63741;42.624;26.276;2024-03-02T07:53:15;99420.38;;;9.52;100.00
74958;BME280;63741;42.624;26.276;2024-03-02T07:55:42;99406.19;;;9.42;100.00
74958;BME280;63741;42.624;26.276;2024-03-02T07:58:09;99405.25;;;9.54;100.00
74958;BME280;63741;42.624;26.276;2024-03-02T08:00:39;99411.50;;;9.64;100.00
74958;BME280;63741;42.624;26.276;2024-03-02T08:03:07;99412.50;;;9.74;100.00
74958;BME280;63741;42.624;26.276;2024-03-02T08:05:38;99419.94;;;9.92;100.00
74958;BME280;63741;42.624;26.276;2024-03-02T08:08:05;99410.31;;;10.13;100.00
74958;BME280;63741;42.624;26.276;2024-03-02T08:10:32;99422.69;;;9.90;100.00
74958;BME280;63741;42.624;26.276;2024-03-02T08:13:00;99413.31;;;9.86;100.00
74958;BME280;63741;42.624;26.276;2024-03-02T08:15:27;99421.16;;;9.87;100.00
74958;BME280;63741;42.624;26.276;2024-03-02T08:17:54;99422.09;;;9.75;100.00
74958;BME280;63741;42.624;26.276;2024-03-02T08:20:23;99385.84;;;9.88;100.00
74958;BME280;63741;42.624;26.276;2024-03-02T08:22:50;99416.56;;;10.12;100.00
74958;BME280;63741;42.624;26.276;2024-03-02T08:25:18;99433.13;;;10.03;100.00
74958;BME280;63741;42.624;26.276;2024-03-02T08:27:44;99405.28;;;9.99;100.00
74958;BME280;63741;42.624;26.276;2024-03-02T08:30:12;99422.47;;;9.93;100.00
74958;BME280;63741;42.624;26.276;2024-03-02T08:32:39;99413.22;;;9.87;100.00
74958;BME280;63741;42.624;26.276;2024-03-02T08:35:07;99415.97;;;9.86;100.00
74958;BME280;63741;42.624;26.276;2024-03-02T08:37:34;99419.81;;;9.93;100.00
74958;BME280;63741;42.624;26.276;2024-03-02T08:40:01;99417.41;;;10.01;100.00
74958;BME280;63741;42.624;26.276;2024-03-02T08:42:30;99426.78;;;9.94;100.00
74958;BME280;63741;42.624;26.276;2024-03-02T08:44:57;99412.97;;;10.02;100.00
74958;BME280;63741;42.624;26.276;2024-03-02T08:47:24;99428.09;;;10.11;100.00
74958;BME280;63741;42.624;26.276;2024-03-02T08:49:51;99434.34;;;9.87;100.00
74958;BME280;63741;42.624;26.276;2024-03-02T08:52:18;99427.50;;;9.96;100.00
74958;BME280;63741;42.624;26.276;2024-03-02T08:54:45;99439.75;;;9.86;100.00
74958;BME280;63741;42.624;26.276;2024-03-02T08:57:12;99423.06;;;9.97;100.00
74958;BME280;63741;42.624;26.276;2024-03-02T08:59:39;99430.50;;;10.25;100.00
74958;BME280;63741;42.624;26.276;2024-03-02T09:02:06;99441.81;;;10.27;100.00
74958;BME280;63741;42.624;26.276;2024-03-02T09:04:33;99443.00;;;10.23;99.73
74958;BME280;63741;42.624;26.276;2024-03-02T09:07:01;99450.91;;;10.12;100.00
74958;BME280;63741;42.624;26.276;2024-03-02T09:09:28;99434.44;;;10.08;100.00
74958;BME280;63741;42.624;26.276;2024-03-02T09:11:55;99437.47;;;10.04;100.00
74958;BME280;63741;42.624;26.276;2024-03-02T09:14:24;99426.19;;;10.24;100.00
74958;BME280;63741;42.624;26.276;2024-03-02T09:16:51;99418.00;;;10.38;99.60
74958;BME280;63741;42.624;26.276;2024-03-02T09:19:18;99419.44;;;10.43;98.87
74958;BME280;63741;42.624;26.276;2024-03-02T09:21:45;99421.22;;;10.53;98.63
74958;BME280;63741;42.624;26.276;2024-03-02T09:24:12;99426.91;;;10.37;99.46
74958;BME280;63741;42.624;26.276;2024-03-02T09:26:43;99420.66;;;10.38;98.81
74958;BME280;63741;42.624;26.276;2024-03-02T09:29:10;99426.53;;;10.31;99.68
74958;BME280;63741;42.624;26.276;2024-03-02T09:31:40;99427.63;;;10.28;99.57
74958;BME280;63741;42.624;26.276;2024-03-02T09:34:08;99425.47;;;10.33;99.68
74958;BME280;63741;42.624;26.276;2024-03-02T09:36:35;99418.47;;;10.21;99.68
74958;BME280;63741;42.624;26.276;2024-03-02T09:39:02;99423.56;;;10.24;99.92
74958;BME280;63741;42.624;26.276;2024-03-02T09:41:33;99428.72;;;10.15;100.00
74958;BME280;63741;42.624;26.276;2024-03-02T09:44:00;99419.56;;;10.07;100.00
74958;BME280;63741;42.624;26.276;2024-03-02T09:46:27;99423.16;;;10.18;100.00
74958;BME280;63741;42.624;26.276;2024-03-02T09:48:54;99428.09;;;10.11;100.00
74958;BME280;63741;42.624;26.276;2024-03-02T09:51:21;99429.03;;;10.21;100.00
74958;BME280;63741;42.624;26.276;2024-03-02T09:53:49;99424.03;;;10.29;100.00
74958;BME280;63741;42.624;26.276;2024-03-02T09:56:17;99423.06;;;10.19;100.00
74958;BME280;63741;42.624;26.276;2024-03-02T09:58:44;99418.38;;;10.23;100.00
74958;BME280;63741;42.624;26.276;2024-03-02T10:01:11;99418.97;;;10.37;99.90
74958;BME280;63741;42.624;26.276;2024-03-02T10:03:39;99430.50;;;10.36;100.00
74958;BME280;63741;42.624;26.276;2024-03-02T10:06:25;99417.25;;;10.48;100.00
74958;BME280;63741;42.624;26.276;2024-03-02T10:08:53;99404.78;;;10.50;99.02
74958;BME280;63741;42.624;26.276;2024-03-02T10:11:32;99410.00;;;10.61;98.36
74958;BME280;63741;42.624;26.276;2024-03-02T10:14:18;99405.41;;;10.74;97.99
74958;BME280;63741;42.624;26.276;2024-03-02T10:16:45;99415.28;;;10.72;97.38
74958;BME280;63741;42.624;26.276;2024-03-02T10:19:20;99416.72;;;10.76;97.04
74958;BME280;63741;42.624;26.276;2024-03-02T10:21:51;99411.97;;;10.59;97.42
74958;BME280;63741;42.624;26.276;2024-03-02T10:24:19;99411.69;;;10.62;97.95
74958;BME280;63741;42.624;26.276;2024-03-02T10:26:47;99410.25;;;10.58;98.36
74958;BME280;63741;42.624;26.276;2024-03-02T10:29:14;99413.84;;;10.68;98.77
74958;BME280;63741;42.624;26.276;2024-03-02T10:31:45;99408.72;;;10.55;98.82
74958;BME280;63741;42.624;26.276;2024-03-02T10:34:15;99405.69;;;10.60;99.23
74958;BME280;63741;42.624;26.276;2024-03-02T10:36:44;99402.81;;;10.52;99.92
74958;BME280;63741;42.624;26.276;2024-03-02T10:39:13;99402.69;;;10.53;99.84
74958;BME280;63741;42.624;26.276;2024-03-02T10:41:41;99402.59;;;10.44;99.07
74958;BME280;63741;42.624;26.276;2024-03-02T10:44:09;99390.91;;;10.57;98.68
74958;BME280;63741;42.624;26.276;2024-03-02T10:46:37;99388.38;;;10.67;98.72
74958;BME280;63741;42.624;26.276;2024-03-02T10:49:06;99388.56;;;10.75;98.11
74958;BME280;63741;42.624;26.276;2024-03-02T10:51:35;99387.19;;;10.60;98.11
74958;BME280;63741;42.624;26.276;2024-03-02T10:54:05;99375.72;;;10.71;97.62
74958;BME280;63741;42.624;26.276;2024-03-02T10:56:40;99373.63;;;10.85;96.62
74958;BME280;63741;42.624;26.276;2024-03-02T10:59:27;99374.84;;;10.81;96.56
74958;BME280;63741;42.624;26.276;2024-03-02T11:01:58;99370.97;;;10.85;96.73
74958;BME280;63741;42.624;26.276;2024-03-02T11:04:31;99376.72;;;10.91;96.26
74958;BME280;63741;42.624;26.276;2024-03-02T11:07:06;99367.59;;;10.83;95.48
74958;BME280;63741;42.624;26.276;2024-03-02T11:09:35;99362.09;;;10.75;96.96
74958;BME280;63741;42.624;26.276;2024-03-02T11:12:06;99358.31;;;10.89;96.91
74958;BME280;63741;42.624;26.276;2024-03-02T11:14:38;99342.19;;;10.92;95.91
74958;BME280;63741;42.624;26.276;2024-03-02T11:17:07;99345.09;;;11.10;94.61
74958;BME280;63741;42.624;26.276;2024-03-02T11:19:35;99342.31;;;11.11;93.94
74958;BME280;63741;42.624;26.276;2024-03-02T11:22:04;99341.31;;;11.03;95.22
74958;BME280;63741;42.624;26.276;2024-03-02T11:24:32;99347.41;;;11.24;94.61
74958;BME280;63741;42.624;26.276;2024-03-02T11:27:07;99346.00;;;11.20;93.94
74958;BME280;63741;42.624;26.276;2024-03-02T11:29:43;99341.75;;;11.08;93.99
74958;BME280;63741;42.624;26.276;2024-03-02T11:32:19;99334.44;;;11.00;94.44
74958;BME280;63741;42.624;26.276;2024-03-02T11:34:49;99340.38;;;11.13;94.50
74958;BME280;63741;42.624;26.276;2024-03-02T11:37:18;99333.88;;;10.97;94.69
74958;BME280;63741;42.624;26.276;2024-03-02T11:39:45;99333.88;;;10.97;95.11
74958;BME280;63741;42.624;26.276;2024-03-02T11:42:14;99340.13;;;11.17;94.64
74958;BME280;63741;42.624;26.276;2024-03-02T11:44:47;99335.16;;;11.23;94.00
74958;BME280;63741;42.624;26.276;2024-03-02T11:47:16;99314.81;;;11.24;94.18
74958;BME280;63741;42.624;26.276;2024-03-02T11:49:50;99302.09;;;11.38;93.84
74958;BME280;63741;42.624;26.276;2024-03-02T11:52:18;99318.22;;;11.35;93.72
74958;BME280;63741;42.624;26.276;2024-03-02T11:54:46;99315.97;;;11.61;91.67
74958;BME280;63741;42.624;26.276;2024-03-02T11:57:15;99310.63;;;11.82;90.86
74958;BME280;63741;42.624;26.276;2024-03-02T11:59:43;99306.00;;;11.75;91.95
74958;BME280;63741;42.624;26.276;2024-03-02T12:02:18;99302.03;;;12.00;89.96
74958;BME280;63741;42.624;26.276;2024-03-02T12:04:47;99294.47;;;11.95;90.60
74958;BME280;63741;42.624;26.276;2024-03-02T12:07:19;99288.69;;;12.21;90.71
74958;BME280;63741;42.624;26.276;2024-03-02T12:09:49;99297.34;;;12.32;88.81
74958;BME280;63741;42.624;26.276;2024-03-02T12:12:16;99303.75;;;12.20;88.16
74958;BME280;63741;42.624;26.276;2024-03-02T12:14:52;99301.31;;;11.88;89.37
74958;BME280;63741;42.624;26.276;2024-03-02T12:17:19;99305.31;;;11.82;89.75
74958;BME280;63741;42.624;26.276;2024-03-02T12:19:46;99298.53;;;11.99;90.10
74958;BME280;63741;42.624;26.276;2024-03-02T12:22:13;99300.38;;;12.08;88.59
74958;BME280;63741;42.624;26.276;2024-03-02T12:24:41;99312.41;;;12.22;87.18
74958;BME280;63741;42.624;26.276;2024-03-02T12:27:13;99293.41;;;12.17;88.41
74958;BME280;63741;42.624;26.276;2024-03-02T12:29:41;99294.97;;;12.29;87.67
74958;BME280;63741;42.624;26.276;2024-03-02T12:32:08;99298.44;;;12.20;88.62
74958;BME280;63741;42.624;26.276;2024-03-02T12:34:35;99290.50;;;12.30;87.67
74958;BME280;63741;42.624;26.276;2024-03-02T12:37:04;99299.72;;;12.35;86.17
74958;BME280;63741;42.624;26.276;2024-03-02T12:39:31;99296.38;;;12.43;87.37
74958;BME280;63741;42.624;26.276;2024-03-02T12:41:59;99295.53;;;12.62;86.88
74958;BME280;63741;42.624;26.276;2024-03-02T12:44:26;99305.16;;;12.34;86.29
74958;BME280;63741;42.624;26.276;2024-03-02T12:46:53;99299.81;;;12.05;87.82
74958;BME280;63741;42.624;26.276;2024-03-02T12:49:24;99304.00;;;12.07;87.45
74958;BME280;63741;42.624;26.276;2024-03-02T12:51:51;99308.75;;;12.13;87.92
74958;BME280;63741;42.624;26.276;2024-03-02T12:54:22;99301.09;;;12.20;87.64
74958;BME280;63741;42.624;26.276;2024-03-02T12:56:50;99298.88;;;12.16;88.11